Nearby METAR Reports

 

KOXC - Oxford/Waterbury, Connecticut, USA
Distance from station: SE 8mi, 12km
Updated: Mon, 05-Dec-2016 6:50pm EST
Few Clouds
Few Clouds
 Wind from calm
Wind: Calm
Temperature: 36°F , 2°C
Dew Point: 28°F , -2°C
Humidity: 75%
Barometer: 30.01 inHg , 1016.3 hPa
Clouds: Few Clouds
Visibility: 10 miles , 16 km
Cloud details: Few Clouds 4900 ft
2016/12/05 23:50 KOXC 052350Z 00000KT 10SM FEW049 02/M02 A3001
KDXR - Danbury, Connecticut, USA
Distance from station: SW 19mi, 30km
Updated: Mon, 05-Dec-2016 6:53pm EST
Overcast
Overcast
 Wind from SW
Wind: SW 3 mph , 6 km/h
Temperature: 37°F , 3°C
Dew Point: 32°F , 0°C
Humidity: 81%
Barometer: 30.02 inHg , 1016.6 hPa
Clouds: Overcast
Visibility: 10 miles , 16 km
Cloud details: Overcast 4700 ft
2016/12/05 23:53 KDXR 052353Z 23003KT 10SM OVC047 03/00 A3002 RMK AO2 SLP167 T00280000 10083 20028 51013
 
KMMK - Meriden, Connecticut, USA
Distance from station: E 20mi, 33km
Updated: Mon, 05-Dec-2016 6:53pm EST
Mostly cloudy
Mostly cloudy
 Wind from calm
Wind: Calm
Temperature: 34°F , 1°C
Dew Point: 30°F , -1°C
Humidity: 87%
Barometer: 30.01 inHg , 1016.3 hPa
Clouds: Mostly cloudy
Visibility: 10 miles , 16 km
Cloud details: Mostly cloudy 6000 ft
2016/12/05 23:53 KMMK 052353Z AUTO 00000KT 10SM BKN060 01/M01 A3001 RMK AO2 SLP163 T00061011 10083 20006 51014 TSNO
KBDR - Bridgeport, Connecticut, USA
Distance from station: S 27mi, 44km
Updated: Mon, 05-Dec-2016 6:52pm EST
Clear
Clear
 Wind from WNW
Wind: WNW 5 mph , 7 km/h
Temperature: 43°F , 6°C
Wind Chill: 40°F , 4°C
Dew Point: 32°F , 0°C
Humidity: 66%
Barometer: 30.02 inHg , 1016.6 hPa
Clouds: Clear
Visibility: 10 miles , 16 km
2016/12/05 23:52 KBDR 052352Z 29004KT 10SM CLR 06/00 A3002 RMK AO2 SLP164 T00610000 10100 20056 51015
 
KHVN - New Haven/Tweed, Connecticut, USA
Distance from station: SE 27mi, 44km
Updated: Mon, 05-Dec-2016 6:53pm EST
Partly cloudy
Partly cloudy
 Wind from WNW
Wind: WNW 3 mph , 6 km/h
Temperature: 43°F , 6°C
Dew Point: 34°F , 1°C
Humidity: 71%
Barometer: 30.01 inHg , 1016.3 hPa
Clouds: Partly cloudy
Visibility: 10 miles , 16 km
Cloud details: Few Clouds 5000 ft
Partly cloudy 25000 ft
2016/12/05 23:53 KHVN 052353Z 29003KT 10SM FEW050 SCT250 06/01 A3001 RMK AO2 SLP162 T00610006 10083 20061 51014
KHFD - Hartford/Brainar, Connecticut, USA
Distance from station: ENE 32mi, 52km
Updated: Mon, 05-Dec-2016 6:53pm EST
Overcast
Overcast
 Wind from WSW
Wind: WSW 3 mph , 6 km/h
Temperature: 43°F , 6°C
Dew Point: 34°F , 1°C
Humidity: 71%
Barometer: 30.00 inHg , 1015.9 hPa
Clouds: Overcast
Visibility: 10 miles , 16 km
Cloud details: Overcast 6000 ft
2016/12/05 23:53 KHFD 052353Z 25003KT 10SM OVC060 06/01 A3000 RMK AO2 SLP159 T00560006 10072 20028 50010
 
KPOU - Poughkeepsie, New York, USA
Distance from station: W 35mi, 56km
Updated: Mon, 05-Dec-2016 6:53pm EST
Overcast
Overcast
 Wind from WSW
Wind: WSW 3 mph , 6 km/h
Temperature: 37°F , 3°C
Dew Point: 32°F , 0°C
Humidity: 81%
Barometer: 30.02 inHg , 1016.6 hPa
Clouds: Overcast
Visibility: 10 miles , 16 km
Cloud details: Overcast 4800 ft
2016/12/05 23:53 KPOU 052353Z 25003KT 10SM OVC048 03/00 A3002 RMK AO2 SLP163 T00330000 10067 20028 51015
KBDL - Windsor Locks, Connecticut, USA
Distance from station: NE 38mi, 62km
Updated: Mon, 05-Dec-2016 6:51pm EST
Overcast
Overcast
 Wind from WSW
Wind: WSW 6 mph , 9 km/h
Temperature: 39°F , 4°C
Wind Chill: 35°F , 2°C
Dew Point: 30°F , -1°C
Humidity: 70%
Barometer: 29.99 inHg , 1015.6 hPa
Clouds: Overcast
Visibility: 10 miles , 16 km
Cloud details: Few Clouds 4900 ft
Overcast 6000 ft
2016/12/05 23:51 KBDL 052351Z 24005KT 10SM FEW049 OVC060 04/M01 A2999 RMK AO2 SLP156 T00441006 10061 20017 51007
 
KSNC - Chester, Connecticut, USA
Distance from station: ESE 39mi, 63km
Updated: Mon, 05-Dec-2016 7:35pm EST
Partly cloudy
Partly cloudy
 Wind from W
Wind: W 3 mph , 6 km/h
Temperature: 37°F , 3°C
Dew Point: 32°F , 0°C
Humidity: 81%
Barometer: 30.01 inHg , 1016.3 hPa
Clouds: Partly cloudy
Visibility: 10 miles , 16 km
Cloud details: Partly cloudy 5000 ft
2016/12/06 00:35 KSNC 060035Z AUTO 27003KT 10SM SCT050 03/00 A3001 RMK AO2
KHPN - White Plains, New York, USA
Distance from station: SW 42mi, 67km
Updated: Mon, 05-Dec-2016 6:56pm EST
Clear
Clear
 Wind from NW
Wind: NW 12 mph , 19 km/h
Temperature: 41°F , 5°C
Wind Chill: 34°F , 1°C
Dew Point: 28°F , -2°C
Humidity: 61%
Barometer: 30.00 inHg , 1015.9 hPa
Clouds: Clear
Visibility: 10 miles , 16 km
2016/12/05 23:56 KHPN 052356Z 31010KT 10SM CLR 05/M02 A3000 RMK AO2 SLP166 60000 T00501022 10083 20050 51013
 
KSWF - Newburgh/Stewart, New York, USA
Distance from station: W 45mi, 72km
Updated: Mon, 05-Dec-2016 7:45pm EST
Partly cloudy
Partly cloudy
 Wind from WNW
Wind: WNW 7 mph , 11 km/h
Temperature: 37°F , 3°C
Wind Chill: 32°F , 0°C
Dew Point: 30°F , -1°C
Humidity: 75%
Barometer: 30.04 inHg , 1017.3 hPa
Clouds: Partly cloudy
Visibility: 10 miles , 16 km
Cloud details: Partly cloudy 6000 ft
2016/12/06 00:45 KSWF 060045Z 30006KT 10SM SCT060 03/M01 A3004
KBAF - Westfield, Massachusetts, USA
Distance from station: NNE 50mi, 80km
Updated: Mon, 05-Dec-2016 6:53pm EST
Overcast
Overcast
 Wind from calm
Wind: Calm
Temperature: 34°F , 1°C
Dew Point: 34°F , 1°C
Humidity: 100%
Barometer: 29.98 inHg , 1015.2 hPa
Clouds: Overcast
Visibility: 10 miles , 16 km
Cloud details: Overcast 5500 ft
2016/12/05 23:53 KBAF 052353Z 00000KT 10SM OVC055 01/01 A2998 RMK AO2 SLP158 60000 T00110011 10028 20000 50006